sensor_id;sensor_type;location;lat;lon;timestamp;pressure;altitude;pressure_sealevel;temperature
19666;BMP180;9980;51.020;7.772;2023-02-12T00:01:22;99522.00;;;10.70
19666;BMP180;9980;51.020;7.772;2023-02-12T00:03:50;99518.00;;;10.70
19666;BMP180;9980;51.020;7.772;2023-02-12T00:06:17;99526.00;;;10.70
19666;BMP180;9980;51.020;7.772;2023-02-12T00:08:49;99524.00;;;10.60
19666;BMP180;9980;51.020;7.772;2023-02-12T00:11:21;99507.00;;;10.60
19666;BMP180;9980;51.020;7.772;2023-02-12T00:13:49;99512.00;;;10.60
19666;BMP180;9980;51.020;7.772;2023-02-12T00:16:21;99509.00;;;10.60
19666;BMP180;9980;51.020;7.772;2023-02-12T00:18:52;99517.00;;;10.70
19666;BMP180;9980;51.020;7.772;2023-02-12T00:21:21;99514.00;;;10.60
19666;BMP180;9980;51.020;7.772;2023-02-12T00:23:48;99512.00;;;10.60
19666;BMP180;9980;51.020;7.772;2023-02-12T00:26:19;99513.00;;;10.60
19666;BMP180;9980;51.020;7.772;2023-02-12T00:28:48;99519.00;;;10.60
19666;BMP180;9980;51.020;7.772;2023-02-12T00:31:23;99524.00;;;10.60
19666;BMP180;9980;51.020;7.772;2023-02-12T00:33:52;99524.00;;;10.60
19666;BMP180;9980;51.020;7.772;2023-02-12T00:36:24;99515.00;;;10.60
19666;BMP180;9980;51.020;7.772;2023-02-12T00:38:53;99521.00;;;10.60
19666;BMP180;9980;51.020;7.772;2023-02-12T00:41:22;99511.00;;;10.60
19666;BMP180;9980;51.020;7.772;2023-02-12T00:43:49;99518.00;;;10.60
19666;BMP180;9980;51.020;7.772;2023-02-12T00:46:17;99526.00;;;10.60
19666;BMP180;9980;51.020;7.772;2023-02-12T00:48:44;99522.00;;;10.60
19666;BMP180;9980;51.020;7.772;2023-02-12T00:51:11;99511.00;;;10.60
19666;BMP180;9980;51.020;7.772;2023-02-12T00:53:37;99507.00;;;10.60
19666;BMP180;9980;51.020;7.772;2023-02-12T00:56:06;99511.00;;;10.60
19666;BMP180;9980;51.020;7.772;2023-02-12T00:58:33;99524.00;;;10.60
19666;BMP180;9980;51.020;7.772;2023-02-12T01:01:00;99516.00;;;10.60
19666;BMP180;9980;51.020;7.772;2023-02-12T01:03:27;99528.00;;;10.60
19666;BMP180;9980;51.020;7.772;2023-02-12T01:05:54;99505.00;;;10.60
19666;BMP180;9980;51.020;7.772;2023-02-12T01:08:23;99510.00;;;10.60
19666;BMP180;9980;51.020;7.772;2023-02-12T01:10:59;99518.00;;;10.50
19666;BMP180;9980;51.020;7.772;2023-02-12T01:13:28;99517.00;;;10.50
19666;BMP180;9980;51.020;7.772;2023-02-12T01:16:04;99518.00;;;10.50
19666;BMP180;9980;51.020;7.772;2023-02-12T01:18:36;99527.00;;;10.50
19666;BMP180;9980;51.020;7.772;2023-02-12T01:21:18;99518.00;;;10.50
19666;BMP180;9980;51.020;7.772;2023-02-12T01:23:46;99529.00;;;10.50
19666;BMP180;9980;51.020;7.772;2023-02-12T01:26:16;99526.00;;;10.50
19666;BMP180;9980;51.020;7.772;2023-02-12T01:28:49;99508.00;;;10.50
19666;BMP180;9980;51.020;7.772;2023-02-12T01:31:23;99506.00;;;10.50
19666;BMP180;9980;51.020;7.772;2023-02-12T01:33:54;99511.00;;;10.40
19666;BMP180;9980;51.020;7.772;2023-02-12T01:36:22;99507.00;;;10.40
19666;BMP180;9980;51.020;7.772;2023-02-12T01:38:50;99505.00;;;10.40
19666;BMP180;9980;51.020;7.772;2023-02-12T01:41:24;99505.00;;;10.40
19666;BMP180;9980;51.020;7.772;2023-02-12T01:44:18;99528.00;;;10.40
19666;BMP180;9980;51.020;7.772;2023-02-12T01:46:49;99510.00;;;10.40
19666;BMP180;9980;51.020;7.772;2023-02-12T01:49:26;99496.00;;;10.40
19666;BMP180;9980;51.020;7.772;2023-02-12T01:52:05;99509.00;;;10.30
19666;BMP180;9980;51.020;7.772;2023-02-12T01:54:36;99512.00;;;10.40
19666;BMP180;9980;51.020;7.772;2023-02-12T01:57:05;99509.00;;;10.30
19666;BMP180;9980;51.020;7.772;2023-02-12T01:59:34;99505.00;;;10.30
19666;BMP180;9980;51.020;7.772;2023-02-12T02:02:03;99518.00;;;10.30
19666;BMP180;9980;51.020;7.772;2023-02-12T02:04:39;99514.00;;;10.30
19666;BMP180;9980;51.020;7.772;2023-02-12T02:07:10;99502.00;;;10.30
19666;BMP180;9980;51.020;7.772;2023-02-12T02:09:39;99517.00;;;10.30
19666;BMP180;9980;51.020;7.772;2023-02-12T02:12:07;99511.00;;;10.30
19666;BMP180;9980;51.020;7.772;2023-02-12T02:14:59;99496.00;;;10.30
19666;BMP180;9980;51.020;7.772;2023-02-12T02:17:50;99480.00;;;10.30
19666;BMP180;9980;51.020;7.772;2023-02-12T02:27:20;99507.00;;;10.20
19666;BMP180;9980;51.020;7.772;2023-02-12T02:35:50;99487.00;;;10.20
19666;BMP180;9980;51.020;7.772;2023-02-12T02:38:23;99492.00;;;10.20
19666;BMP180;9980;51.020;7.772;2023-02-12T02:41:07;99495.00;;;10.20
19666;BMP180;9980;51.020;7.772;2023-02-12T02:43:44;99476.00;;;10.20
19666;BMP180;9980;51.020;7.772;2023-02-12T02:46:24;99482.00;;;10.20
19666;BMP180;9980;51.020;7.772;2023-02-12T02:48:59;99470.00;;;10.20
19666;BMP180;9980;51.020;7.772;2023-02-12T02:51:36;99487.00;;;10.20
19666;BMP180;9980;51.020;7.772;2023-02-12T02:57:07;99479.00;;;10.20
19666;BMP180;9980;51.020;7.772;2023-02-12T02:59:42;99474.00;;;10.20
19666;BMP180;9980;51.020;7.772;2023-02-12T03:02:24;99468.00;;;10.20
19666;BMP180;9980;51.020;7.772;2023-02-12T03:05:17;99469.00;;;10.10
19666;BMP180;9980;51.020;7.772;2023-02-12T03:07:51;99472.00;;;10.20
19666;BMP180;9980;51.020;7.772;2023-02-12T03:10:42;99472.00;;;10.10
19666;BMP180;9980;51.020;7.772;2023-02-12T03:13:17;99473.00;;;10.10
19666;BMP180;9980;51.020;7.772;2023-02-12T03:15:54;99470.00;;;10.10
19666;BMP180;9980;51.020;7.772;2023-02-12T03:18:32;99474.00;;;10.10
19666;BMP180;9980;51.020;7.772;2023-02-12T03:21:05;99475.00;;;10.10
19666;BMP180;9980;51.020;7.772;2023-02-12T03:23:51;99471.00;;;10.10
19666;BMP180;9980;51.020;7.772;2023-02-12T03:26:45;99469.00;;;10.10
19666;BMP180;9980;51.020;7.772;2023-02-12T03:29:13;99466.00;;;10.10
19666;BMP180;9980;51.020;7.772;2023-02-12T03:32:23;99482.00;;;10.10
19666;BMP180;9980;51.020;7.772;2023-02-12T03:35:23;99484.00;;;10.10
19666;BMP180;9980;51.020;7.772;2023-02-12T03:38:06;99485.00;;;10.10
19666;BMP180;9980;51.020;7.772;2023-02-12T03:40:50;99477.00;;;10.10
19666;BMP180;9980;51.020;7.772;2023-02-12T03:43:30;99489.00;;;10.10
19666;BMP180;9980;51.020;7.772;2023-02-12T03:51:37;99481.00;;;10.10
19666;BMP180;9980;51.020;7.772;2023-02-12T03:54:08;99485.00;;;10.10
19666;BMP180;9980;51.020;7.772;2023-02-12T03:56:50;99481.00;;;10.10
19666;BMP180;9980;51.020;7.772;2023-02-12T03:59:19;99489.00;;;10.10
19666;BMP180;9980;51.020;7.772;2023-02-12T04:01:48;99476.00;;;10.10
19666;BMP180;9980;51.020;7.772;2023-02-12T04:04:16;99490.00;;;10.10
19666;BMP180;9980;51.020;7.772;2023-02-12T04:06:46;99493.00;;;10.10
19666;BMP180;9980;51.020;7.772;2023-02-12T04:09:15;99497.00;;;10.10
19666;BMP180;9980;51.020;7.772;2023-02-12T04:14:52;99493.00;;;10.10
19666;BMP180;9980;51.020;7.772;2023-02-12T04:17:43;99500.00;;;10.10
19666;BMP180;9980;51.020;7.772;2023-02-12T04:20:30;99507.00;;;10.10
19666;BMP180;9980;51.020;7.772;2023-02-12T04:23:12;99512.00;;;10.10
19666;BMP180;9980;51.020;7.772;2023-02-12T04:26:18;99515.00;;;10.10
19666;BMP180;9980;51.020;7.772;2023-02-12T04:32:14;99530.00;;;10.10
19666;BMP180;9980;51.020;7.772;2023-02-12T04:34:51;99514.00;;;10.10
19666;BMP180;9980;51.020;7.772;2023-02-12T04:37:35;99534.00;;;10.10
19666;BMP180;9980;51.020;7.772;2023-02-12T04:40:11;99513.00;;;10.10
19666;BMP180;9980;51.020;7.772;2023-02-12T04:42:49;99519.00;;;10.10
19666;BMP180;9980;51.020;7.772;2023-02-12T04:45:31;99512.00;;;10.10
19666;BMP180;9980;51.020;7.772;2023-02-12T04:48:00;99534.00;;;10.10
19666;BMP180;9980;51.020;7.772;2023-02-12T04:50:40;99513.00;;;10.10
19666;BMP180;9980;51.020;7.772;2023-02-12T04:53:09;99520.00;;;10.10
19666;BMP180;9980;51.020;7.772;2023-02-12T04:55:36;99517.00;;;10.10
19666;BMP180;9980;51.020;7.772;2023-02-12T04:58:04;99527.00;;;10.10
19666;BMP180;9980;51.020;7.772;2023-02-12T05:00:32;99525.00;;;10.10
19666;BMP180;9980;51.020;7.772;2023-02-12T05:02:59;99526.00;;;10.20
19666;BMP180;9980;51.020;7.772;2023-02-12T05:05:26;99527.00;;;10.20
19666;BMP180;9980;51.020;7.772;2023-02-12T05:07:53;99522.00;;;10.20
19666;BMP180;9980;51.020;7.772;2023-02-12T05:10:20;99517.00;;;10.20
19666;BMP180;9980;51.020;7.772;2023-02-12T05:12:47;99520.00;;;10.20
19666;BMP180;9980;51.020;7.772;2023-02-12T05:15:14;99528.00;;;10.20
19666;BMP180;9980;51.020;7.772;2023-02-12T05:17:40;99526.00;;;10.20
19666;BMP180;9980;51.020;7.772;2023-02-12T05:20:08;99537.00;;;10.20
19666;BMP180;9980;51.020;7.772;2023-02-12T05:22:36;99527.00;;;10.20
19666;BMP180;9980;51.020;7.772;2023-02-12T05:25:03;99527.00;;;10.20
19666;BMP180;9980;51.020;7.772;2023-02-12T05:27:30;99531.00;;;10.20
19666;BMP180;9980;51.020;7.772;2023-02-12T05:29:57;99526.00;;;10.20
19666;BMP180;9980;51.020;7.772;2023-02-12T05:32:24;99536.00;;;10.20
19666;BMP180;9980;51.020;7.772;2023-02-12T05:34:51;99532.00;;;10.20
19666;BMP180;9980;51.020;7.772;2023-02-12T05:37:18;99530.00;;;10.20
19666;BMP180;9980;51.020;7.772;2023-02-12T05:39:44;99532.00;;;10.20
19666;BMP180;9980;51.020;7.772;2023-02-12T05:42:11;99530.00;;;10.20
19666;BMP180;9980;51.020;7.772;2023-02-12T05:44:38;99538.00;;;10.20
19666;BMP180;9980;51.020;7.772;2023-02-12T05:47:05;99524.00;;;10.20
19666;BMP180;9980;51.020;7.772;2023-02-12T05:49:32;99540.00;;;10.20
19666;BMP180;9980;51.020;7.772;2023-02-12T05:52:00;99550.00;;;10.20
19666;BMP180;9980;51.020;7.772;2023-02-12T05:54:29;99543.00;;;10.20
19666;BMP180;9980;51.020;7.772;2023-02-12T05:56:55;99543.00;;;10.20
19666;BMP180;9980;51.020;7.772;2023-02-12T05:59:23;99539.00;;;10.20
19666;BMP180;9980;51.020;7.772;2023-02-12T06:01:51;99524.00;;;10.20
19666;BMP180;9980;51.020;7.772;2023-02-12T06:04:27;99531.00;;;10.20
19666;BMP180;9980;51.020;7.772;2023-02-12T06:06:55;99550.00;;;10.20
19666;BMP180;9980;51.020;7.772;2023-02-12T06:09:23;99544.00;;;10.20
19666;BMP180;9980;51.020;7.772;2023-02-12T06:11:50;99553.00;;;10.20
19666;BMP180;9980;51.020;7.772;2023-02-12T06:14:19;99546.00;;;10.20
19666;BMP180;9980;51.020;7.772;2023-02-12T06:16:49;99536.00;;;10.20
19666;BMP180;9980;51.020;7.772;2023-02-12T06:19:18;99547.00;;;10.20
19666;BMP180;9980;51.020;7.772;2023-02-12T06:21:45;99548.00;;;10.20
19666;BMP180;9980;51.020;7.772;2023-02-12T06:24:14;99543.00;;;10.20
19666;BMP180;9980;51.020;7.772;2023-02-12T06:26:42;99544.00;;;10.20
19666;BMP180;9980;51.020;7.772;2023-02-12T06:29:09;99548.00;;;10.20
19666;BMP180;9980;51.020;7.772;2023-02-12T06:31:36;99552.00;;;10.20
19666;BMP180;9980;51.020;7.772;2023-02-12T06:34:09;99551.00;;;10.20
19666;BMP180;9980;51.020;7.772;2023-02-12T06:36:40;99551.00;;;10.20
19666;BMP180;9980;51.020;7.772;2023-02-12T06:39:07;99553.00;;;10.20
19666;BMP180;9980;51.020;7.772;2023-02-12T06:41:34;99550.00;;;10.20
19666;BMP180;9980;51.020;7.772;2023-02-12T06:44:01;99542.00;;;10.20
19666;BMP180;9980;51.020;7.772;2023-02-12T06:46:28;99564.00;;;10.20
19666;BMP180;9980;51.020;7.772;2023-02-12T06:48:59;99564.00;;;10.20
19666;BMP180;9980;51.020;7.772;2023-02-12T06:51:28;99563.00;;;10.20
19666;BMP180;9980;51.020;7.772;2023-02-12T06:53:55;99569.00;;;10.20
19666;BMP180;9980;51.020;7.772;2023-02-12T06:56:25;99580.00;;;10.20
19666;BMP180;9980;51.020;7.772;2023-02-12T06:58:57;99578.00;;;10.20
19666;BMP180;9980;51.020;7.772;2023-02-12T07:01:28;99580.00;;;10.20
19666;BMP180;9980;51.020;7.772;2023-02-12T07:04:01;99582.00;;;10.20
19666;BMP180;9980;51.020;7.772;2023-02-12T07:06:30;99593.00;;;10.20
19666;BMP180;9980;51.020;7.772;2023-02-12T07:08:59;99592.00;;;10.20
19666;BMP180;9980;51.020;7.772;2023-02-12T07:11:30;99575.00;;;10.20
19666;BMP180;9980;51.020;7.772;2023-02-12T07:13:58;99593.00;;;10.20
19666;BMP180;9980;51.020;7.772;2023-02-12T07:16:26;99582.00;;;10.20
19666;BMP180;9980;51.020;7.772;2023-02-12T07:18:53;99579.00;;;10.20
19666;BMP180;9980;51.020;7.772;2023-02-12T07:21:20;99599.00;;;10.20
19666;BMP180;9980;51.020;7.772;2023-02-12T07:23:50;99600.00;;;10.20
19666;BMP180;9980;51.020;7.772;2023-02-12T07:26:19;99611.00;;;10.20
19666;BMP180;9980;51.020;7.772;2023-02-12T07:28:47;99594.00;;;10.30
19666;BMP180;9980;51.020;7.772;2023-02-12T07:31:21;99606.00;;;10.30
19666;BMP180;9980;51.020;7.772;2023-02-12T07:33:52;99594.00;;;10.30
19666;BMP180;9980;51.020;7.772;2023-02-12T07:36:21;99600.00;;;10.30
19666;BMP180;9980;51.020;7.772;2023-02-12T07:38:48;99599.00;;;10.30
19666;BMP180;9980;51.020;7.772;2023-02-12T07:41:22;99593.00;;;10.30
19666;BMP180;9980;51.020;7.772;2023-02-12T07:43:55;99605.00;;;10.30
19666;BMP180;9980;51.020;7.772;2023-02-12T07:46:26;99614.00;;;10.30
19666;BMP180;9980;51.020;7.772;2023-02-12T07:48:59;99601.00;;;10.40
19666;BMP180;9980;51.020;7.772;2023-02-12T07:51:27;99585.00;;;10.40
19666;BMP180;9980;51.020;7.772;2023-02-12T07:53:55;99612.00;;;10.40
19666;BMP180;9980;51.020;7.772;2023-02-12T07:56:25;99610.00;;;10.40
19666;BMP180;9980;51.020;7.772;2023-02-12T07:59:05;99609.00;;;10.40
19666;BMP180;9980;51.020;7.772;2023-02-12T08:01:35;99618.00;;;10.50
19666;BMP180;9980;51.020;7.772;2023-02-12T08:04:10;99602.00;;;10.50
19666;BMP180;9980;51.020;7.772;2023-02-12T08:06:40;99616.00;;;10.50
19666;BMP180;9980;51.020;7.772;2023-02-12T08:09:10;99618.00;;;10.50
19666;BMP180;9980;51.020;7.772;2023-02-12T08:11:40;99616.00;;;10.60
19666;BMP180;9980;51.020;7.772;2023-02-12T08:14:10;99612.00;;;10.60
19666;BMP180;9980;51.020;7.772;2023-02-12T08:16:39;99610.00;;;10.60
19666;BMP180;9980;51.020;7.772;2023-02-12T08:19:07;99620.00;;;10.60
19666;BMP180;9980;51.020;7.772;2023-02-12T08:21:44;99633.00;;;10.70
19666;BMP180;9980;51.020;7.772;2023-02-12T08:24:12;99613.00;;;10.70
19666;BMP180;9980;51.020;7.772;2023-02-12T08:26:39;99621.00;;;10.70
19666;BMP180;9980;51.020;7.772;2023-02-12T08:29:10;99626.00;;;10.80
19666;BMP180;9980;51.020;7.772;2023-02-12T08:31:41;99631.00;;;10.80
19666;BMP180;9980;51.020;7.772;2023-02-12T08:34:24;99617.00;;;10.90
19666;BMP180;9980;51.020;7.772;2023-02-12T08:36:53;99624.00;;;10.90
19666;BMP180;9980;51.020;7.772;2023-02-12T08:39:23;99635.00;;;10.90
19666;BMP180;9980;51.020;7.772;2023-02-12T08:41:53;99630.00;;;10.90
19666;BMP180;9980;51.020;7.772;2023-02-12T08:44:20;99620.00;;;11.00
19666;BMP180;9980;51.020;7.772;2023-02-12T08:46:52;99629.00;;;11.00
19666;BMP180;9980;51.020;7.772;2023-02-12T08:49:28;99639.00;;;11.10
19666;BMP180;9980;51.020;7.772;2023-02-12T08:51:58;99633.00;;;11.10
19666;BMP180;9980;51.020;7.772;2023-02-12T08:54:28;99626.00;;;11.10
19666;BMP180;9980;51.020;7.772;2023-02-12T08:57:01;99639.00;;;11.10
19666;BMP180;9980;51.020;7.772;2023-02-12T08:59:29;99647.00;;;11.20
19666;BMP180;9980;51.020;7.772;2023-02-12T09:01:56;99637.00;;;11.20
19666;BMP180;9980;51.020;7.772;2023-02-12T09:04:26;99636.00;;;11.20
19666;BMP180;9980;51.020;7.772;2023-02-12T09:06:54;99638.00;;;11.30
19666;BMP180;9980;51.020;7.772;2023-02-12T09:09:22;99638.00;;;11.30
19666;BMP180;9980;51.020;7.772;2023-02-12T09:11:49;99631.00;;;11.40
19666;BMP180;9980;51.020;7.772;2023-02-12T09:14:17;99636.00;;;11.40
19666;BMP180;9980;51.020;7.772;2023-02-12T09:16:50;99643.00;;;11.50
19666;BMP180;9980;51.020;7.772;2023-02-12T09:19:19;99641.00;;;11.50
19666;BMP180;9980;51.020;7.772;2023-02-12T09:21:51;99644.00;;;11.50
19666;BMP180;9980;51.020;7.772;2023-02-12T09:24:22;99652.00;;;11.60
19666;BMP180;9980;51.020;7.772;2023-02-12T09:26:49;99655.00;;;11.60
19666;BMP180;9980;51.020;7.772;2023-02-12T09:29:15;99636.00;;;11.60
19666;BMP180;9980;51.020;7.772;2023-02-12T09:31:42;99651.00;;;11.60
19666;BMP180;9980;51.020;7.772;2023-02-12T09:34:09;99654.00;;;11.60
19666;BMP180;9980;51.020;7.772;2023-02-12T09:36:36;99633.00;;;11.60
19666;BMP180;9980;51.020;7.772;2023-02-12T09:39:03;99658.00;;;11.70
19666;BMP180;9980;51.020;7.772;2023-02-12T09:47:42;99638.00;;;11.70
19666;BMP180;9980;51.020;7.772;2023-02-12T09:51:03;99627.00;;;11.80
19666;BMP180;9980;51.020;7.772;2023-02-12T09:53:27;99653.00;;;11.80
19666;BMP180;9980;51.020;7.772;2023-02-12T09:55:55;99637.00;;;11.80
19666;BMP180;9980;51.020;7.772;2023-02-12T09:58:40;99664.00;;;11.80
19666;BMP180;9980;51.020;7.772;2023-02-12T10:01:17;99655.00;;;11.90
19666;BMP180;9980;51.020;7.772;2023-02-12T10:03:48;99642.00;;;11.90
19666;BMP180;9980;51.020;7.772;2023-02-12T10:06:40;99657.00;;;11.90
19666;BMP180;9980;51.020;7.772;2023-02-12T10:09:33;99649.00;;;11.90
19666;BMP180;9980;51.020;7.772;2023-02-12T10:12:23;99651.00;;;11.90
19666;BMP180;9980;51.020;7.772;2023-02-12T10:15:16;99650.00;;;11.90
19666;BMP180;9980;51.020;7.772;2023-02-12T10:18:23;99657.00;;;12.00
19666;BMP180;9980;51.020;7.772;2023-02-12T10:26:53;99647.00;;;12.10
19666;BMP180;9980;51.020;7.772;2023-02-12T10:29:27;99651.00;;;12.10
19666;BMP180;9980;51.020;7.772;2023-02-12T10:32:29;99668.00;;;12.10
19666;BMP180;9980;51.020;7.772;2023-02-12T10:34:59;99658.00;;;12.20
19666;BMP180;9980;51.020;7.772;2023-02-12T10:37:41;99656.00;;;12.20
19666;BMP180;9980;51.020;7.772;2023-02-12T10:40:34;99656.00;;;12.20
19666;BMP180;9980;51.020;7.772;2023-02-12T10:43:03;99648.00;;;12.30
19666;BMP180;9980;51.020;7.772;2023-02-12T10:45:36;99661.00;;;12.30
19666;BMP180;9980;51.020;7.772;2023-02-12T10:48:34;99655.00;;;12.30
19666;BMP180;9980;51.020;7.772;2023-02-12T10:53:38;99647.00;;;12.40
19666;BMP180;9980;51.020;7.772;2023-02-12T10:56:20;99652.00;;;12.40
19666;BMP180;9980;51.020;7.772;2023-02-12T10:58:54;99651.00;;;12.40
19666;BMP180;9980;51.020;7.772;2023-02-12T11:01:35;99636.00;;;12.40
19666;BMP180;9980;51.020;7.772;2023-02-12T11:04:25;99640.00;;;12.40
19666;BMP180;9980;51.020;7.772;2023-02-12T11:07:01;99643.00;;;12.50
19666;BMP180;9980;51.020;7.772;2023-02-12T11:09:46;99655.00;;;12.50
19666;BMP180;9980;51.020;7.772;2023-02-12T11:12:30;99648.00;;;12.50
19666;BMP180;9980;51.020;7.772;2023-02-12T11:15:05;99640.00;;;12.60
19666;BMP180;9980;51.020;7.772;2023-02-12T11:17:40;99647.00;;;12.60
19666;BMP180;9980;51.020;7.772;2023-02-12T11:22:50;99633.00;;;12.70
19666;BMP180;9980;51.020;7.772;2023-02-12T11:25:19;99632.00;;;12.70
19666;BMP180;9980;51.020;7.772;2023-02-12T11:30:27;99616.00;;;12.80
19666;BMP180;9980;51.020;7.772;2023-02-12T11:32:53;99619.00;;;12.90
19666;BMP180;9980;51.020;7.772;2023-02-12T11:35:24;99626.00;;;12.90
19666;BMP180;9980;51.020;7.772;2023-02-12T11:37:57;99616.00;;;12.90
19666;BMP180;9980;51.020;7.772;2023-02-12T11:40:29;99619.00;;;12.90
19666;BMP180;9980;51.020;7.772;2023-02-12T11:43:01;99619.00;;;12.90
19666;BMP180;9980;51.020;7.772;2023-02-12T11:45:43;99605.00;;;12.90
19666;BMP180;9980;51.020;7.772;2023-02-12T11:48:24;99602.00;;;13.00
19666;BMP180;9980;51.020;7.772;2023-02-12T11:50:55;99614.00;;;13.00
19666;BMP180;9980;51.020;7.772;2023-02-12T11:53:34;99600.00;;;13.00
19666;BMP180;9980;51.020;7.772;2023-02-12T11:56:06;99611.00;;;13.00
19666;BMP180;9980;51.020;7.772;2023-02-12T11:58:34;99611.00;;;13.10
19666;BMP180;9980;51.020;7.772;2023-02-12T12:01:11;99620.00;;;13.10
19666;BMP180;9980;51.020;7.772;2023-02-12T12:04:13;99606.00;;;13.10
19666;BMP180;9980;51.020;7.772;2023-02-12T12:06:56;99614.00;;;13.10
19666;BMP180;9980;51.020;7.772;2023-02-12T12:09:54;99611.00;;;13.10
19666;BMP180;9980;51.020;7.772;2023-02-12T12:12:43;99610.00;;;13.10
19666;BMP180;9980;51.020;7.772;2023-02-12T12:15:24;99599.00;;;13.20
19666;BMP180;9980;51.020;7.772;2023-02-12T12:18:53;99592.00;;;13.20
19666;BMP180;9980;51.020;7.772;2023-02-12T12:21:51;99605.00;;;13.20
19666;BMP180;9980;51.020;7.772;2023-02-12T12:24:37;99588.00;;;13.20
19666;BMP180;9980;51.020;7.772;2023-02-12T12:27:22;99594.00;;;13.30
19666;BMP180;9980;51.020;7.772;2023-02-12T12:30:35;99594.00;;;13.30
19666;BMP180;9980;51.020;7.772;2023-02-12T12:33:16;99560.00;;;13.30
19666;BMP180;9980;51.020;7.772;2023-02-12T12:36:06;99592.00;;;13.40
19666;BMP180;9980;51.020;7.772;2023-02-12T12:39:16;99570.00;;;13.40
19666;BMP180;9980;51.020;7.772;2023-02-12T12:45:27;99572.00;;;13.40
19666;BMP180;9980;51.020;7.772;2023-02-12T12:48:44;99566.00;;;13.40
19666;BMP180;9980;51.020;7.772;2023-02-12T12:54:17;99560.00;;;13.40
19666;BMP180;9980;51.020;7.772;2023-02-12T13:06:48;99561.00;;;13.40
19666;BMP180;9980;51.020;7.772;2023-02-12T13:12:59;99561.00;;;13.40
19666;BMP180;9980;51.020;7.772;2023-02-12T13:15:45;99539.00;;;13.40
19666;BMP180;9980;51.020;7.772;2023-02-12T13:18:45;99548.00;;;13.40
19666;BMP180;9980;51.020;7.772;2023-02-12T13:21:38;99565.00;;;13.40
19666;BMP180;9980;51.020;7.772;2023-02-12T13:24:33;99563.00;;;13.40
19666;BMP180;9980;51.020;7.772;2023-02-12T13:27:17;99534.00;;;13.40
19666;BMP180;9980;51.020;7.772;2023-02-12T13:30:03;99549.00;;;13.40
19666;BMP180;9980;51.020;7.772;2023-02-12T13:32:40;99545.00;;;13.40
19666;BMP180;9980;51.020;7.772;2023-02-12T13:35:18;99546.00;;;13.50
19666;BMP180;9980;51.020;7.772;2023-02-12T13:37:52;99539.00;;;13.50
19666;BMP180;9980;51.020;7.772;2023-02-12T13:40:22;99542.00;;;13.50
19666;BMP180;9980;51.020;7.772;2023-02-12T13:46:06;99533.00;;;13.50
19666;BMP180;9980;51.020;7.772;2023-02-12T13:51:37;99543.00;;;13.50
19666;BMP180;9980;51.020;7.772;2023-02-12T13:54:24;99531.00;;;13.40
19666;BMP180;9980;51.020;7.772;2023-02-12T13:56:59;99550.00;;;13.40
19666;BMP180;9980;51.020;7.772;2023-02-12T14:02:26;99525.00;;;13.40
19666;BMP180;9980;51.020;7.772;2023-02-12T14:04:56;99530.00;;;13.40
19666;BMP180;9980;51.020;7.772;2023-02-12T14:07:50;99523.00;;;13.40
19666;BMP180;9980;51.020;7.772;2023-02-12T14:10:27;99531.00;;;13.40
19666;BMP180;9980;51.020;7.772;2023-02-12T14:13:09;99540.00;;;13.40
19666;BMP180;9980;51.020;7.772;2023-02-12T14:15:48;99535.00;;;13.30
19666;BMP180;9980;51.020;7.772;2023-02-12T14:18:34;99529.00;;;13.30
19666;BMP180;9980;51.020;7.772;2023-02-12T14:23:45;99533.00;;;13.30
19666;BMP180;9980;51.020;7.772;2023-02-12T14:26:18;99538.00;;;13.30
19666;BMP180;9980;51.020;7.772;2023-02-12T14:28:51;99533.00;;;13.30
19666;BMP180;9980;51.020;7.772;2023-02-12T14:31:32;99544.00;;;13.30
19666;BMP180;9980;51.020;7.772;2023-02-12T14:36:39;99538.00;;;13.30
19666;BMP180;9980;51.020;7.772;2023-02-12T14:41:54;99531.00;;;13.20
19666;BMP180;9980;51.020;7.772;2023-02-12T14:47:03;99542.00;;;13.20
19666;BMP180;9980;51.020;7.772;2023-02-12T14:49:45;99536.00;;;13.20
19666;BMP180;9980;51.020;7.772;2023-02-12T14:52:19;99537.00;;;13.10
19666;BMP180;9980;51.020;7.772;2023-02-12T14:55:04;99533.00;;;13.10
19666;BMP180;9980;51.020;7.772;2023-02-12T14:57:39;99531.00;;;13.10
19666;BMP180;9980;51.020;7.772;2023-02-12T15:03:06;99548.00;;;13.00
19666;BMP180;9980;51.020;7.772;2023-02-12T15:05:53;99545.00;;;13.00
19666;BMP180;9980;51.020;7.772;2023-02-12T15:08:59;99542.00;;;13.00
19666;BMP180;9980;51.020;7.772;2023-02-12T15:11:51;99533.00;;;12.90
19666;BMP180;9980;51.020;7.772;2023-02-12T15:14:27;99537.00;;;12.90
19666;BMP180;9980;51.020;7.772;2023-02-12T15:17:06;99540.00;;;12.90
19666;BMP180;9980;51.020;7.772;2023-02-12T15:19:54;99533.00;;;12.90
19666;BMP180;9980;51.020;7.772;2023-02-12T15:22:35;99516.00;;;12.80
19666;BMP180;9980;51.020;7.772;2023-02-12T15:27:55;99521.00;;;12.80
19666;BMP180;9980;51.020;7.772;2023-02-12T15:30:30;99512.00;;;12.80
19666;BMP180;9980;51.020;7.772;2023-02-12T15:33:03;99521.00;;;12.80
19666;BMP180;9980;51.020;7.772;2023-02-12T15:35:35;99514.00;;;12.80
19666;BMP180;9980;51.020;7.772;2023-02-12T15:38:03;99509.00;;;12.80
19666;BMP180;9980;51.020;7.772;2023-02-12T15:40:33;99500.00;;;12.80
19666;BMP180;9980;51.020;7.772;2023-02-12T15:43:04;99493.00;;;12.80
19666;BMP180;9980;51.020;7.772;2023-02-12T15:45:35;99508.00;;;12.80
19666;BMP180;9980;51.020;7.772;2023-02-12T15:50:52;99512.00;;;12.70
19666;BMP180;9980;51.020;7.772;2023-02-12T15:53:22;99515.00;;;12.70
19666;BMP180;9980;51.020;7.772;2023-02-12T15:55:50;99503.00;;;12.70
19666;BMP180;9980;51.020;7.772;2023-02-12T16:00:54;99489.00;;;12.70
19666;BMP180;9980;51.020;7.772;2023-02-12T16:03:31;99503.00;;;12.70
19666;BMP180;9980;51.020;7.772;2023-02-12T16:08:42;99503.00;;;12.70
19666;BMP180;9980;51.020;7.772;2023-02-12T16:11:11;99492.00;;;12.60
19666;BMP180;9980;51.020;7.772;2023-02-12T16:13:57;99492.00;;;12.60
19666;BMP180;9980;51.020;7.772;2023-02-12T16:16:39;99503.00;;;12.60
19666;BMP180;9980;51.020;7.772;2023-02-12T16:19:23;99502.00;;;12.60
19666;BMP180;9980;51.020;7.772;2023-02-12T16:21:59;99506.00;;;12.60
19666;BMP180;9980;51.020;7.772;2023-02-12T16:24:36;99493.00;;;12.60
19666;BMP180;9980;51.020;7.772;2023-02-12T16:27:19;99495.00;;;12.60
19666;BMP180;9980;51.020;7.772;2023-02-12T16:29:51;99506.00;;;12.60
19666;BMP180;9980;51.020;7.772;2023-02-12T16:32:41;99511.00;;;12.60
19666;BMP180;9980;51.020;7.772;2023-02-12T16:48:01;99511.00;;;12.50
19666;BMP180;9980;51.020;7.772;2023-02-12T16:50:51;99495.00;;;12.50
19666;BMP180;9980;51.020;7.772;2023-02-12T16:53:39;99507.00;;;12.50
19666;BMP180;9980;51.020;7.772;2023-02-12T16:56:14;99509.00;;;12.50
19666;BMP180;9980;51.020;7.772;2023-02-12T16:58:49;99516.00;;;12.50
19666;BMP180;9980;51.020;7.772;2023-02-12T17:01:22;99512.00;;;12.50